createdAt,value
2022-11-26T00:01:17.062Z,5.40
2022-11-26T00:03:43.772Z,5.40
2022-11-26T00:06:34.055Z,5.40
2022-11-26T00:09:01.407Z,5.40
2022-11-26T00:11:28.754Z,5.30
2022-11-26T00:13:55.375Z,5.30
2022-11-26T00:16:22.709Z,5.30
2022-11-26T00:18:49.306Z,5.30
2022-11-26T00:21:25.755Z,5.30
2022-11-26T00:23:53.836Z,5.30
2022-11-26T00:26:23.427Z,5.20
2022-11-26T00:28:57.659Z,5.30
2022-11-26T00:31:25.029Z,5.20
2022-11-26T00:33:52.336Z,5.20
2022-11-26T00:36:33.058Z,5.20
2022-11-26T00:39:04.258Z,5.10
2022-11-26T00:41:35.239Z,5.10
2022-11-26T00:44:02.125Z,5.10
2022-11-26T00:46:29.416Z,5.10
2022-11-26T00:48:56.032Z,5.20
2022-11-26T00:51:28.106Z,5.30
2022-11-26T00:54:01.242Z,5.30
2022-11-26T00:56:31.629Z,5.30
2022-11-26T00:59:00.429Z,5.30
2022-11-26T01:01:29.037Z,5.30
2022-11-26T01:03:55.840Z,5.30
2022-11-26T01:06:35.818Z,5.20
2022-11-26T01:09:04.797Z,5.20
2022-11-26T01:11:32.306Z,5.10
2022-11-26T01:14:00.005Z,5.10
2022-11-26T01:16:35.025Z,5.10
2022-11-26T01:19:02.310Z,5.00
2022-11-26T01:21:31.711Z,5.00
2022-11-26T01:23:58.312Z,5.00
2022-11-26T01:26:34.078Z,4.90
2022-11-26T01:29:00.746Z,4.90
2022-11-26T01:31:29.509Z,4.80
2022-11-26T01:33:56.829Z,4.80
2022-11-26T01:36:28.534Z,4.80
2022-11-26T01:38:57.516Z,4.80
2022-11-26T01:41:39.811Z,4.70
2022-11-26T01:44:13.964Z,4.70
2022-11-26T01:46:41.323Z,4.70
2022-11-26T01:49:25.316Z,4.60
2022-11-26T01:52:14.432Z,4.60
2022-11-26T01:54:43.340Z,4.60
2022-11-26T01:57:18.706Z,4.50
2022-11-26T01:59:50.416Z,4.50
2022-11-26T02:02:18.865Z,4.50
2022-11-26T02:05:03.292Z,4.50
2022-11-26T02:07:30.403Z,4.50
2022-11-26T02:09:57.062Z,4.40
2022-11-26T02:12:24.347Z,4.40
2022-11-26T02:14:50.976Z,4.40
2022-11-26T02:17:37.265Z,4.40
2022-11-26T02:20:21.933Z,4.40
2022-11-26T02:23:23.241Z,4.50
2022-11-26T02:26:16.317Z,4.50
2022-11-26T02:29:13.977Z,4.40
2022-11-26T02:31:59.525Z,4.30
2022-11-26T02:34:45.960Z,4.30
2022-11-26T02:37:25.397Z,4.30
2022-11-26T02:39:52.062Z,4.20
2022-11-26T02:42:26.935Z,4.20
2022-11-26T02:44:56.974Z,4.20
2022-11-26T02:47:28.098Z,4.20
2022-11-26T02:49:58.287Z,4.20
2022-11-26T02:52:26.809Z,4.20
2022-11-26T02:54:54.987Z,4.20
2022-11-26T02:57:26.662Z,4.20
2022-11-26T02:59:53.519Z,4.20
2022-11-26T03:02:26.491Z,4.30
2022-11-26T03:04:54.330Z,4.20
2022-11-26T03:07:22.391Z,4.20
2022-11-26T03:09:53.321Z,4.20
2022-11-26T03:12:21.118Z,4.30
2022-11-26T03:14:47.923Z,4.20
2022-11-26T03:17:15.735Z,4.20
2022-11-26T03:19:42.391Z,4.20
2022-11-26T03:22:10.288Z,4.20
2022-11-26T03:24:37.487Z,4.10
2022-11-26T03:27:05.974Z,4.10
2022-11-26T03:29:33.269Z,4.10
2022-11-26T03:32:01.377Z,4.10
2022-11-26T03:34:28.144Z,4.00
2022-11-26T03:36:55.584Z,4.00
2022-11-26T03:39:22.332Z,4.00
2022-11-26T03:41:50.013Z,3.90
2022-11-26T03:44:16.641Z,3.90
2022-11-26T03:46:44.026Z,3.90
2022-11-26T03:49:10.633Z,3.90
2022-11-26T03:51:37.981Z,3.90
2022-11-26T03:54:04.677Z,3.90
2022-11-26T03:56:32.153Z,3.90
2022-11-26T03:58:58.759Z,4.00
2022-11-26T04:01:26.274Z,3.90
2022-11-26T04:03:52.950Z,3.90
2022-11-26T04:06:20.475Z,3.90
2022-11-26T04:08:47.100Z,3.80
2022-11-26T04:11:14.709Z,3.80
2022-11-26T04:13:41.339Z,3.70
2022-11-26T04:16:09.204Z,3.70
2022-11-26T04:18:36.250Z,3.60
2022-11-26T04:21:06.890Z,3.60
2022-11-26T04:23:34.255Z,3.60
2022-11-26T04:26:01.592Z,3.60
2022-11-26T04:28:28.267Z,3.50
2022-11-26T04:30:55.644Z,3.50
2022-11-26T04:33:22.303Z,3.60
2022-11-26T04:35:51.086Z,3.50
2022-11-26T04:38:21.546Z,3.50
2022-11-26T04:40:51.500Z,3.50
2022-11-26T04:43:18.193Z,3.50
2022-11-26T04:45:45.486Z,3.40
2022-11-26T04:48:12.153Z,3.40
2022-11-26T04:50:39.407Z,3.50
2022-11-26T04:53:06.064Z,3.40
2022-11-26T04:55:33.323Z,3.40
2022-11-26T04:57:59.989Z,3.40
2022-11-26T05:00:27.189Z,3.40
2022-11-26T05:02:53.788Z,3.40
2022-11-26T05:05:21.085Z,3.40
2022-11-26T05:07:47.808Z,3.40
2022-11-26T05:10:15.143Z,3.50
2022-11-26T05:12:41.898Z,3.50
2022-11-26T05:15:09.562Z,3.40
2022-11-26T05:17:36.238Z,3.40
2022-11-26T05:20:04.890Z,3.40
2022-11-26T05:22:31.512Z,3.40
2022-11-26T05:24:59.003Z,3.40
2022-11-26T05:27:25.715Z,3.40
2022-11-26T05:29:52.636Z,3.30
2022-11-26T05:32:19.267Z,3.30
2022-11-26T05:34:46.547Z,3.30
2022-11-26T05:37:13.191Z,3.30
2022-11-26T05:39:40.471Z,3.30
2022-11-26T05:42:09.461Z,3.30
2022-11-26T05:44:38.318Z,3.30
2022-11-26T05:47:05.200Z,3.30
2022-11-26T05:49:32.559Z,3.30
2022-11-26T05:51:59.488Z,3.20
2022-11-26T05:54:26.941Z,3.20
2022-11-26T05:56:59.788Z,3.20
2022-11-26T05:59:27.906Z,3.20
2022-11-26T06:01:54.658Z,3.20
2022-11-26T06:04:22.033Z,3.20
2022-11-26T06:06:48.605Z,3.20
2022-11-26T06:09:15.913Z,3.20
2022-11-26T06:11:42.494Z,3.10
2022-11-26T06:14:10.720Z,3.10
2022-11-26T06:16:37.457Z,3.10
2022-11-26T06:19:04.806Z,3.10
2022-11-26T06:21:31.429Z,3.00
2022-11-26T06:23:59.776Z,3.00
2022-11-26T06:26:26.753Z,3.00
2022-11-26T06:28:53.680Z,3.00
2022-11-26T06:31:21.087Z,3.00
2022-11-26T06:33:48.034Z,2.90
2022-11-26T06:36:15.307Z,2.90
2022-11-26T06:38:41.889Z,2.90
2022-11-26T06:41:09.566Z,2.90
2022-11-26T06:43:36.499Z,2.80
2022-11-26T06:46:05.993Z,2.80
2022-11-26T06:48:33.926Z,2.70
2022-11-26T06:51:09.871Z,2.70
2022-11-26T06:53:36.657Z,2.70
2022-11-26T06:56:14.828Z,2.70
2022-11-26T06:58:46.820Z,2.70
2022-11-26T07:01:23.811Z,2.80
2022-11-26T07:03:51.478Z,2.80
2022-11-26T07:06:26.962Z,2.90
2022-11-26T07:08:56.334Z,2.90
2022-11-26T07:11:23.989Z,3.00
2022-11-26T07:13:51.401Z,3.10
2022-11-26T07:16:18.763Z,3.10
2022-11-26T07:18:50.248Z,3.20
2022-11-26T07:21:18.067Z,3.20
2022-11-26T07:23:45.048Z,3.20
2022-11-26T07:26:13.455Z,3.30
2022-11-26T07:28:41.768Z,3.30
2022-11-26T07:31:16.851Z,3.30
2022-11-26T07:33:45.285Z,3.40
2022-11-26T07:36:16.739Z,3.40
2022-11-26T07:38:44.413Z,3.40
2022-11-26T07:41:14.200Z,3.50
2022-11-26T07:43:42.296Z,3.50
2022-11-26T07:46:11.882Z,3.60
2022-11-26T07:48:40.131Z,3.70
2022-11-26T07:51:15.215Z,3.70
2022-11-26T07:53:42.153Z,3.80
2022-11-26T07:56:09.545Z,3.80
2022-11-26T07:58:36.212Z,3.80
2022-11-26T08:01:15.660Z,3.90
2022-11-26T08:03:46.323Z,3.90
2022-11-26T08:06:16.540Z,3.90
2022-11-26T08:08:44.233Z,3.90
2022-11-26T08:11:22.853Z,3.90
2022-11-26T08:13:54.430Z,3.90
2022-11-26T08:16:21.488Z,4.00
2022-11-26T08:18:48.974Z,4.00
2022-11-26T08:21:16.262Z,4.10
2022-11-26T08:23:43.278Z,4.10
2022-11-26T08:26:23.804Z,4.10
2022-11-26T08:28:55.697Z,4.20
2022-11-26T08:31:24.656Z,4.30
2022-11-26T08:33:52.479Z,4.30
2022-11-26T08:36:19.095Z,4.50
2022-11-26T08:38:46.340Z,4.60
2022-11-26T08:41:14.207Z,4.70
2022-11-26T08:46:28.916Z,4.90
2022-11-26T08:48:57.456Z,5.00
2022-11-26T08:51:25.271Z,5.20
2022-11-26T08:53:53.090Z,5.20
2022-11-26T08:56:20.538Z,5.20
2022-11-26T08:58:48.586Z,5.20
2022-11-26T09:01:22.947Z,5.20
2022-11-26T09:03:51.360Z,5.30
2022-11-26T09:06:20.101Z,5.30
2022-11-26T09:09:05.323Z,5.40
2022-11-26T09:11:34.373Z,5.50
2022-11-26T09:14:01.799Z,5.60
2022-11-26T09:16:29.871Z,5.60
2022-11-26T09:18:59.948Z,5.60
2022-11-26T09:21:27.649Z,5.60
2022-11-26T09:23:54.662Z,5.70
2022-11-26T09:26:22.397Z,5.70
2022-11-26T09:28:49.660Z,5.80
2022-11-26T09:31:18.479Z,5.80
2022-11-26T09:33:45.373Z,5.90
2022-11-26T09:36:15.410Z,5.90
2022-11-26T09:38:42.397Z,6.00
2022-11-26T09:41:34.319Z,6.10
2022-11-26T09:44:26.051Z,6.10
2022-11-26T09:47:13.309Z,6.20
2022-11-26T09:50:03.719Z,6.20
2022-11-26T09:53:02.734Z,6.30
2022-11-26T09:55:32.560Z,6.40
2022-11-26T09:58:05.094Z,6.50
2022-11-26T10:00:39.409Z,6.50
2022-11-26T10:03:12.138Z,6.60
2022-11-26T10:05:48.237Z,6.70
2022-11-26T10:08:30.321Z,6.70
2022-11-26T10:11:04.104Z,6.80
2022-11-26T10:14:17.024Z,6.80
2022-11-26T10:17:00.647Z,6.90
2022-11-26T10:19:43.728Z,7.00
2022-11-26T10:22:43.911Z,7.10
2022-11-26T10:25:19.768Z,7.10
2022-11-26T10:27:48.980Z,7.20
2022-11-26T10:30:22.965Z,7.30
2022-11-26T10:32:51.037Z,7.50
2022-11-26T10:35:22.500Z,7.50
2022-11-26T10:37:49.557Z,7.50
2022-11-26T10:40:22.051Z,7.50
2022-11-26T10:43:08.229Z,7.60
2022-11-26T10:45:38.837Z,7.70
2022-11-26T10:48:25.779Z,7.60
2022-11-26T10:51:09.490Z,7.70
2022-11-26T10:53:57.646Z,7.70
2022-11-26T10:56:42.295Z,7.80
2022-11-26T10:59:28.952Z,7.80
2022-11-26T11:02:02.287Z,7.90
2022-11-26T11:04:38.833Z,7.90
2022-11-26T11:07:10.460Z,8.00
2022-11-26T11:09:39.135Z,7.90
2022-11-26T11:12:11.711Z,7.90
2022-11-26T11:14:44.052Z,7.90
2022-11-26T11:17:25.475Z,7.90
2022-11-26T11:19:52.798Z,8.00
2022-11-26T11:22:20.862Z,8.00
2022-11-26T11:24:48.782Z,8.10
2022-11-26T11:27:38.108Z,8.10
2022-11-26T11:30:05.839Z,8.10
2022-11-26T11:32:34.728Z,8.20
2022-11-26T11:35:20.163Z,8.20
2022-11-26T11:37:52.642Z,8.30
2022-11-26T11:40:30.640Z,8.20
2022-11-26T11:42:59.131Z,8.30
2022-11-26T11:45:31.926Z,8.20
2022-11-26T11:48:08.305Z,8.30
2022-11-26T11:50:44.127Z,8.30
2022-11-26T11:53:29.709Z,8.40
2022-11-26T11:56:03.079Z,8.40
2022-11-26T11:58:53.928Z,8.40
2022-11-26T12:01:44.020Z,8.50
2022-11-26T12:04:42.053Z,8.60
2022-11-26T12:07:40.153Z,8.70
2022-11-26T12:10:23.586Z,8.80
2022-11-26T12:12:56.440Z,8.80
2022-11-26T12:15:29.346Z,8.90
2022-11-26T12:18:11.913Z,9.00
2022-11-26T12:20:54.386Z,9.10
2022-11-26T12:23:49.567Z,9.10
2022-11-26T12:26:22.991Z,9.20
2022-11-26T12:29:12.305Z,9.20
2022-11-26T12:31:45.573Z,9.30
2022-11-26T12:34:31.038Z,9.30
2022-11-26T12:37:06.324Z,9.40
2022-11-26T12:39:51.863Z,9.30
2022-11-26T12:42:37.751Z,9.40
2022-11-26T12:45:23.466Z,9.40
2022-11-26T12:47:56.055Z,9.40
2022-11-26T12:50:46.019Z,9.40
2022-11-26T12:53:25.103Z,9.40
2022-11-26T12:55:54.818Z,9.40
2022-11-26T12:58:39.198Z,9.40
2022-11-26T13:01:09.060Z,9.40
2022-11-26T13:03:35.901Z,9.50
2022-11-26T13:06:30.459Z,9.50
2022-11-26T13:09:20.011Z,9.60
2022-11-26T13:12:07.887Z,9.70
2022-11-26T13:15:12.547Z,9.70
2022-11-26T13:17:46.802Z,9.80
2022-11-26T13:20:28.959Z,9.80
2022-11-26T13:23:21.866Z,9.90
2022-11-26T13:26:27.233Z,9.90
2022-11-26T13:29:22.556Z,9.90
2022-11-26T13:32:14.047Z,9.80
2022-11-26T13:35:01.169Z,9.80
2022-11-26T13:37:36.352Z,9.70
2022-11-26T13:40:19.553Z,9.60
2022-11-26T13:43:18.621Z,9.50
2022-11-26T13:46:00.770Z,9.50
2022-11-26T13:48:41.121Z,9.40
2022-11-26T13:51:17.787Z,9.30
2022-11-26T13:53:49.781Z,9.20
2022-11-26T13:56:22.519Z,9.20
2022-11-26T13:59:01.465Z,9.10
2022-11-26T14:01:40.655Z,9.10
2022-11-26T14:04:33.326Z,9.10
2022-11-26T14:07:06.665Z,9.00
2022-11-26T14:09:42.385Z,9.00
2022-11-26T14:12:10.617Z,8.90
2022-11-26T14:14:39.511Z,8.90
2022-11-26T14:17:55.706Z,8.90
2022-11-26T14:20:22.428Z,8.90
2022-11-26T14:22:49.406Z,8.90
2022-11-26T14:25:16.418Z,8.80
2022-11-26T14:27:55.656Z,8.90
2022-11-26T14:30:24.810Z,8.90
2022-11-26T14:33:07.143Z,8.80
2022-11-26T14:35:36.360Z,8.80
2022-11-26T14:38:06.627Z,8.80
2022-11-26T14:40:36.143Z,8.70
2022-11-26T14:43:22.484Z,8.70
2022-11-26T14:46:17.877Z,8.70
2022-11-26T14:48:47.224Z,8.70
2022-11-26T14:51:23.684Z,8.60
2022-11-26T14:53:51.156Z,8.60
2022-11-26T14:56:19.802Z,8.60
2022-11-26T14:58:51.590Z,8.60
2022-11-26T15:01:26.988Z,8.60
2022-11-26T15:04:01.932Z,8.60
2022-11-26T15:06:38.282Z,8.60
2022-11-26T15:09:16.179Z,8.60
2022-11-26T15:11:56.978Z,8.60
2022-11-26T15:14:48.605Z,8.60
2022-11-26T15:17:22.091Z,8.60
2022-11-26T15:19:53.865Z,8.60
2022-11-26T15:22:44.505Z,8.60
2022-11-26T15:25:23.418Z,8.60
2022-11-26T15:28:01.160Z,8.60
2022-11-26T15:30:36.789Z,8.50
2022-11-26T15:33:08.516Z,8.50
2022-11-26T15:35:36.320Z,8.50
2022-11-26T15:38:14.458Z,8.50
2022-11-26T15:40:53.308Z,8.40
2022-11-26T15:43:31.901Z,8.40
2022-11-26T15:46:02.895Z,8.40
2022-11-26T15:48:51.458Z,8.30
2022-11-26T15:51:59.299Z,8.30
2022-11-26T15:54:49.490Z,8.20
2022-11-26T15:57:29.321Z,8.20
2022-11-26T16:00:01.833Z,8.10
2022-11-26T16:02:32.245Z,8.00
2022-11-26T16:05:00.831Z,8.00
2022-11-26T16:07:30.561Z,7.90
2022-11-26T16:10:19.092Z,7.80
2022-11-26T16:13:25.069Z,7.70
2022-11-26T16:16:03.547Z,7.70
2022-11-26T16:18:43.312Z,7.60
2022-11-26T16:21:24.160Z,7.50
2022-11-26T16:24:15.693Z,7.40
2022-11-26T16:27:23.513Z,7.30
2022-11-26T16:29:50.117Z,7.30
2022-11-26T16:32:17.978Z,7.20
2022-11-26T16:34:45.214Z,7.10
2022-11-26T16:37:33.847Z,7.00
2022-11-26T16:40:03.625Z,7.00
2022-11-26T16:42:32.405Z,6.90
2022-11-26T16:45:03.900Z,6.90
2022-11-26T16:47:41.192Z,6.80
2022-11-26T16:50:23.552Z,6.80
2022-11-26T16:52:51.303Z,6.80
2022-11-26T16:55:20.902Z,6.70
2022-11-26T16:57:51.455Z,6.70
2022-11-26T17:00:20.715Z,6.70
2022-11-26T17:02:48.144Z,6.70
2022-11-26T17:05:15.163Z,6.70
2022-11-26T17:07:46.749Z,6.60
2022-11-26T17:10:16.119Z,6.60
2022-11-26T17:12:43.993Z,6.50
2022-11-26T17:15:11.666Z,6.50
2022-11-26T17:17:39.386Z,6.50
2022-11-26T17:20:22.353Z,6.50
2022-11-26T17:22:49.471Z,6.40
2022-11-26T17:25:16.847Z,6.40
2022-11-26T17:27:44.231Z,6.40
2022-11-26T17:30:17.850Z,6.40
2022-11-26T17:32:44.595Z,6.30
2022-11-26T17:35:11.610Z,6.40
2022-11-26T17:37:38.651Z,6.30
2022-11-26T17:40:14.896Z,6.30
2022-11-26T17:42:41.500Z,6.30
2022-11-26T17:45:09.030Z,6.30
2022-11-26T17:47:35.715Z,6.30
2022-11-26T17:50:03.108Z,6.20
2022-11-26T17:52:29.795Z,6.20
2022-11-26T17:54:56.555Z,6.10
2022-11-26T17:57:24.314Z,6.10
2022-11-26T17:59:51.496Z,6.10
2022-11-26T18:02:18.128Z,6.10
2022-11-26T18:04:45.463Z,6.10
2022-11-26T18:07:15.500Z,6.10
2022-11-26T18:09:42.874Z,6.10
2022-11-26T18:12:27.013Z,6.10
2022-11-26T18:14:54.802Z,6.00
2022-11-26T18:17:21.748Z,6.00
2022-11-26T18:19:49.121Z,6.00
2022-11-26T18:22:19.168Z,6.00
2022-11-26T18:24:57.344Z,6.00
2022-11-26T18:27:30.373Z,6.00
2022-11-26T18:29:57.668Z,5.90
2022-11-26T18:32:24.391Z,5.90
2022-11-26T18:34:51.825Z,5.90
2022-11-26T18:37:18.576Z,5.90
2022-11-26T18:39:45.643Z,5.90
2022-11-26T18:42:35.948Z,5.90
2022-11-26T18:45:00.190Z,5.90
2022-11-26T18:47:26.821Z,5.90
2022-11-26T18:49:53.442Z,5.90
2022-11-26T18:52:20.079Z,5.80
2022-11-26T18:54:47.156Z,5.80
2022-11-26T18:57:13.784Z,5.80
2022-11-26T18:59:40.719Z,5.80
2022-11-26T19:02:10.251Z,5.70
2022-11-26T19:04:38.543Z,5.70
2022-11-26T19:07:05.117Z,5.70
2022-11-26T19:09:32.413Z,5.70
2022-11-26T19:11:59.114Z,5.60
2022-11-26T19:14:25.744Z,5.60
2022-11-26T19:16:52.500Z,5.50
2022-11-26T19:19:19.676Z,5.50
2022-11-26T19:21:46.379Z,5.50
2022-11-26T19:24:14.057Z,5.50
2022-11-26T19:26:43.413Z,5.50
2022-11-26T19:29:12.145Z,5.50
2022-11-26T19:31:39.610Z,5.40
2022-11-26T19:34:12.105Z,5.40
2022-11-26T19:36:38.940Z,5.30
2022-11-26T19:39:07.141Z,5.30
2022-11-26T19:41:34.021Z,5.30
2022-11-26T19:44:03.458Z,5.20
2022-11-26T19:46:30.136Z,5.20
2022-11-26T19:48:57.353Z,5.20
2022-11-26T19:51:25.244Z,5.10
2022-11-26T19:53:54.614Z,5.10
2022-11-26T19:56:25.277Z,5.10
2022-11-26T19:58:58.209Z,5.10
2022-11-26T20:01:26.990Z,5.10
2022-11-26T20:03:53.788Z,5.00
2022-11-26T20:06:23.581Z,5.00
2022-11-26T20:08:50.320Z,5.00
2022-11-26T20:11:18.621Z,4.90
2022-11-26T20:13:46.849Z,4.90
2022-11-26T20:16:18.449Z,4.90
2022-11-26T20:18:46.443Z,4.80
2022-11-26T20:21:16.664Z,4.70
2022-11-26T20:23:43.389Z,4.60
2022-11-26T20:26:21.647Z,4.60
2022-11-26T20:28:49.815Z,4.50
2022-11-26T20:31:21.933Z,4.50
2022-11-26T20:33:50.967Z,4.50
2022-11-26T20:36:20.652Z,4.40
2022-11-26T20:38:52.329Z,4.50
2022-11-26T20:41:19.328Z,4.40
2022-11-26T20:43:46.761Z,4.50
2022-11-26T20:46:14.282Z,4.40
2022-11-26T20:48:43.698Z,4.40
2022-11-26T20:51:13.492Z,4.50
2022-11-26T20:53:42.736Z,4.60
2022-11-26T20:56:09.564Z,4.60
2022-11-26T20:58:37.056Z,4.60
2022-11-26T21:01:03.761Z,4.70
2022-11-26T21:03:31.791Z,4.70
2022-11-26T21:06:02.314Z,4.70
2022-11-26T21:08:29.606Z,4.70
2022-11-26T21:10:56.274Z,4.70
2022-11-26T21:13:23.525Z,4.70
2022-11-26T21:15:50.157Z,4.70
2022-11-26T21:18:17.515Z,4.60
2022-11-26T21:20:44.481Z,4.70
2022-11-26T21:23:13.181Z,4.70
2022-11-26T21:25:41.727Z,4.70
2022-11-26T21:28:10.594Z,4.70
2022-11-26T21:30:38.244Z,4.70
2022-11-26T21:33:09.362Z,4.70
2022-11-26T21:35:37.011Z,4.70
2022-11-26T21:38:05.982Z,4.70
2022-11-26T21:40:33.496Z,4.70
2022-11-26T21:43:00.772Z,4.70
2022-11-26T21:45:27.546Z,4.70
2022-11-26T21:47:55.026Z,4.70
2022-11-26T21:50:21.712Z,4.70
2022-11-26T21:52:49.052Z,4.70
2022-11-26T21:55:15.824Z,4.70
2022-11-26T21:57:43.087Z,4.70
2022-11-26T22:00:10.203Z,4.60
2022-11-26T22:02:37.237Z,4.60
2022-11-26T22:05:04.525Z,4.60
2022-11-26T22:07:32.069Z,4.60
2022-11-26T22:09:59.064Z,4.60
2022-11-26T22:12:25.976Z,4.50
2022-11-26T22:14:52.563Z,4.50
2022-11-26T22:17:19.788Z,4.40
2022-11-26T22:19:46.745Z,4.40
2022-11-26T22:22:14.028Z,4.40
2022-11-26T22:24:40.643Z,4.40
2022-11-26T22:27:08.024Z,4.40
2022-11-26T22:29:34.644Z,4.40
2022-11-26T22:32:01.620Z,4.40
2022-11-26T22:34:29.381Z,4.40
2022-11-26T22:36:56.017Z,4.30
2022-11-26T22:39:24.283Z,4.30
2022-11-26T22:41:51.010Z,4.30
2022-11-26T22:44:18.622Z,4.20
2022-11-26T22:46:45.727Z,4.20
2022-11-26T22:49:19.069Z,4.20
2022-11-26T22:51:47.194Z,4.20
2022-11-26T22:54:16.637Z,4.30
2022-11-26T22:56:43.216Z,4.20
2022-11-26T22:59:13.367Z,4.20
2022-11-26T23:01:40.478Z,4.20
2022-11-26T23:04:09.603Z,4.20
2022-11-26T23:06:37.124Z,4.20
2022-11-26T23:09:06.954Z,4.20
2022-11-26T23:11:37.104Z,4.20
2022-11-26T23:14:07.598Z,4.30
2022-11-26T23:16:35.598Z,4.20
2022-11-26T23:19:04.318Z,4.20
2022-11-26T23:21:38.399Z,4.20
2022-11-26T23:24:06.438Z,4.20
2022-11-26T23:26:34.574Z,4.20
2022-11-26T23:29:02.653Z,4.20
2022-11-26T23:31:32.408Z,4.20
2022-11-26T23:34:00.150Z,4.20
2022-11-26T23:36:27.831Z,4.20
2022-11-26T23:38:55.887Z,4.20
2022-11-26T23:41:22.671Z,4.20
2022-11-26T23:43:50.060Z,4.20
2022-11-26T23:46:25.697Z,4.20
2022-11-26T23:48:53.131Z,4.20
2022-11-26T23:51:22.888Z,4.20
2022-11-26T23:53:51.043Z,4.10
2022-11-26T23:56:20.622Z,4.10
2022-11-26T23:58:53.098Z,4.10
